sensor_id;sensor_type;location;lat;lon;timestamp;P1;durP1;ratioP1;P2;durP2;ratioP2
23449;SDS011;11897;45.438;12.128;2023-05-10T00:01:25;1.20;;;1.10;;
23449;SDS011;11897;45.438;12.128;2023-05-10T00:03:53;1.53;;;1.30;;
23449;SDS011;11897;45.438;12.128;2023-05-10T00:06:19;5.03;;;1.27;;
23449;SDS011;11897;45.438;12.128;2023-05-10T00:08:46;1.10;;;0.90;;
23449;SDS011;11897;45.438;12.128;2023-05-10T00:11:13;1.00;;;0.83;;
23449;SDS011;11897;45.438;12.128;2023-05-10T00:13:40;1.90;;;1.27;;
23449;SDS011;11897;45.438;12.128;2023-05-10T00:16:06;1.80;;;1.00;;
23449;SDS011;11897;45.438;12.128;2023-05-10T00:18:34;1.33;;;0.93;;
23449;SDS011;11897;45.438;12.128;2023-05-10T00:21:01;1.37;;;1.20;;
23449;SDS011;11897;45.438;12.128;2023-05-10T00:23:28;1.80;;;1.10;;
23449;SDS011;11897;45.438;12.128;2023-05-10T00:25:54;2.17;;;1.33;;
23449;SDS011;11897;45.438;12.128;2023-05-10T00:28:21;1.50;;;1.27;;
23449;SDS011;11897;45.438;12.128;2023-05-10T00:30:48;2.93;;;1.20;;
23449;SDS011;11897;45.438;12.128;2023-05-10T00:33:14;1.57;;;1.03;;
23449;SDS011;11897;45.438;12.128;2023-05-10T00:35:43;1.93;;;1.07;;
23449;SDS011;11897;45.438;12.128;2023-05-10T00:38:09;4.90;;;1.57;;
23449;SDS011;11897;45.438;12.128;2023-05-10T00:40:36;3.30;;;1.00;;
23449;SDS011;11897;45.438;12.128;2023-05-10T00:43:08;1.53;;;1.03;;
23449;SDS011;11897;45.438;12.128;2023-05-10T00:45:35;1.40;;;1.30;;
23449;SDS011;11897;45.438;12.128;2023-05-10T00:48:03;2.00;;;1.30;;
23449;SDS011;11897;45.438;12.128;2023-05-10T00:50:30;2.07;;;1.40;;
23449;SDS011;11897;45.438;12.128;2023-05-10T00:53:01;1.77;;;1.20;;
23449;SDS011;11897;45.438;12.128;2023-05-10T00:55:28;1.37;;;1.20;;
23449;SDS011;11897;45.438;12.128;2023-05-10T00:58:05;1.43;;;1.17;;
23449;SDS011;11897;45.438;12.128;2023-05-10T01:00:32;2.73;;;1.50;;
23449;SDS011;11897;45.438;12.128;2023-05-10T01:03:00;3.07;;;1.03;;
23449;SDS011;11897;45.438;12.128;2023-05-10T01:05:28;3.00;;;1.10;;
23449;SDS011;11897;45.438;12.128;2023-05-10T01:07:56;1.77;;;1.20;;
23449;SDS011;11897;45.438;12.128;2023-05-10T01:10:25;1.70;;;1.20;;
23449;SDS011;11897;45.438;12.128;2023-05-10T01:12:51;1.27;;;0.90;;
23449;SDS011;11897;45.438;12.128;2023-05-10T01:15:20;1.53;;;1.17;;
23449;SDS011;11897;45.438;12.128;2023-05-10T01:17:47;1.63;;;1.00;;
23449;SDS011;11897;45.438;12.128;2023-05-10T01:20:14;1.87;;;1.10;;
23449;SDS011;11897;45.438;12.128;2023-05-10T01:25:30;3.80;;;1.10;;
23449;SDS011;11897;45.438;12.128;2023-05-10T01:28:05;1.37;;;1.00;;
23449;SDS011;11897;45.438;12.128;2023-05-10T01:30:43;1.50;;;1.07;;
23449;SDS011;11897;45.438;12.128;2023-05-10T01:33:15;2.37;;;1.30;;
23449;SDS011;11897;45.438;12.128;2023-05-10T01:35:47;3.23;;;1.17;;
23449;SDS011;11897;45.438;12.128;2023-05-10T01:38:21;2.07;;;1.07;;
23449;SDS011;11897;45.438;12.128;2023-05-10T01:40:55;2.30;;;1.33;;
23449;SDS011;11897;45.438;12.128;2023-05-10T01:43:30;1.90;;;1.30;;
23449;SDS011;11897;45.438;12.128;2023-05-10T01:46:02;1.70;;;1.13;;
23449;SDS011;11897;45.438;12.128;2023-05-10T01:48:37;1.00;;;0.80;;
23449;SDS011;11897;45.438;12.128;2023-05-10T01:51:10;1.40;;;1.10;;
23449;SDS011;11897;45.438;12.128;2023-05-10T01:53:38;1.43;;;1.13;;
23449;SDS011;11897;45.438;12.128;2023-05-10T01:56:06;1.43;;;0.87;;
23449;SDS011;11897;45.438;12.128;2023-05-10T01:58:34;1.83;;;1.10;;
23449;SDS011;11897;45.438;12.128;2023-05-10T02:01:03;1.47;;;1.20;;
23449;SDS011;11897;45.438;12.128;2023-05-10T02:03:30;3.23;;;0.97;;
23449;SDS011;11897;45.438;12.128;2023-05-10T02:06:00;1.17;;;0.90;;
23449;SDS011;11897;45.438;12.128;2023-05-10T02:08:27;1.93;;;1.10;;
23449;SDS011;11897;45.438;12.128;2023-05-10T02:10:56;1.10;;;0.80;;
23449;SDS011;11897;45.438;12.128;2023-05-10T02:13:23;1.63;;;0.90;;
23449;SDS011;11897;45.438;12.128;2023-05-10T02:15:51;1.57;;;1.30;;
23449;SDS011;11897;45.438;12.128;2023-05-10T02:18:18;1.50;;;1.00;;
23449;SDS011;11897;45.438;12.128;2023-05-10T02:20:45;0.87;;;0.80;;
23449;SDS011;11897;45.438;12.128;2023-05-10T02:23:16;2.73;;;1.30;;
23449;SDS011;11897;45.438;12.128;2023-05-10T02:25:43;1.13;;;1.03;;
23449;SDS011;11897;45.438;12.128;2023-05-10T02:28:10;3.93;;;1.30;;
23449;SDS011;11897;45.438;12.128;2023-05-10T02:30:38;2.77;;;1.60;;
23449;SDS011;11897;45.438;12.128;2023-05-10T02:33:06;2.27;;;1.03;;
23449;SDS011;11897;45.438;12.128;2023-05-10T02:35:33;1.10;;;1.00;;
23449;SDS011;11897;45.438;12.128;2023-05-10T02:38:01;2.13;;;1.30;;
23449;SDS011;11897;45.438;12.128;2023-05-10T02:40:30;1.37;;;1.27;;
23449;SDS011;11897;45.438;12.128;2023-05-10T02:42:58;1.20;;;0.90;;
23449;SDS011;11897;45.438;12.128;2023-05-10T02:45:26;1.20;;;0.90;;
23449;SDS011;11897;45.438;12.128;2023-05-10T02:47:54;1.77;;;0.97;;
23449;SDS011;11897;45.438;12.128;2023-05-10T02:50:21;2.37;;;1.20;;
23449;SDS011;11897;45.438;12.128;2023-05-10T02:52:49;1.93;;;0.90;;
23449;SDS011;11897;45.438;12.128;2023-05-10T02:55:17;2.10;;;0.80;;
23449;SDS011;11897;45.438;12.128;2023-05-10T02:57:48;2.30;;;1.17;;
23449;SDS011;11897;45.438;12.128;2023-05-10T03:00:15;1.10;;;1.00;;
23449;SDS011;11897;45.438;12.128;2023-05-10T03:02:41;1.40;;;1.00;;
23449;SDS011;11897;45.438;12.128;2023-05-10T03:05:08;1.60;;;1.00;;
23449;SDS011;11897;45.438;12.128;2023-05-10T03:07:35;2.57;;;1.00;;
23449;SDS011;11897;45.438;12.128;2023-05-10T03:10:02;1.13;;;0.93;;
23449;SDS011;11897;45.438;12.128;2023-05-10T03:12:31;6.00;;;1.53;;
23449;SDS011;11897;45.438;12.128;2023-05-10T03:15:11;2.47;;;1.50;;
23449;SDS011;11897;45.438;12.128;2023-05-10T03:17:45;1.60;;;1.03;;
23449;SDS011;11897;45.438;12.128;2023-05-10T03:20:15;3.23;;;1.20;;
23449;SDS011;11897;45.438;12.128;2023-05-10T03:22:44;3.87;;;1.20;;
23449;SDS011;11897;45.438;12.128;2023-05-10T03:25:11;1.10;;;0.93;;
23449;SDS011;11897;45.438;12.128;2023-05-10T03:27:40;2.90;;;1.67;;
23449;SDS011;11897;45.438;12.128;2023-05-10T03:30:07;2.90;;;1.50;;
23449;SDS011;11897;45.438;12.128;2023-05-10T03:32:36;3.40;;;1.30;;
23449;SDS011;11897;45.438;12.128;2023-05-10T03:35:05;1.70;;;1.23;;
23449;SDS011;11897;45.438;12.128;2023-05-10T03:37:32;2.47;;;1.50;;
23449;SDS011;11897;45.438;12.128;2023-05-10T03:39:59;2.03;;;1.30;;
23449;SDS011;11897;45.438;12.128;2023-05-10T03:42:27;2.57;;;1.30;;
23449;SDS011;11897;45.438;12.128;2023-05-10T03:44:54;1.20;;;1.10;;
23449;SDS011;11897;45.438;12.128;2023-05-10T03:47:21;1.50;;;1.30;;
23449;SDS011;11897;45.438;12.128;2023-05-10T03:49:50;5.47;;;1.20;;
23449;SDS011;11897;45.438;12.128;2023-05-10T03:52:17;1.73;;;1.13;;
23449;SDS011;11897;45.438;12.128;2023-05-10T03:54:44;6.00;;;1.10;;
23449;SDS011;11897;45.438;12.128;2023-05-10T03:57:11;1.77;;;1.30;;
23449;SDS011;11897;45.438;12.128;2023-05-10T03:59:38;1.20;;;1.03;;
23449;SDS011;11897;45.438;12.128;2023-05-10T04:02:05;1.10;;;1.00;;
23449;SDS011;11897;45.438;12.128;2023-05-10T04:04:31;1.97;;;1.40;;
23449;SDS011;11897;45.438;12.128;2023-05-10T04:06:59;1.53;;;1.20;;
23449;SDS011;11897;45.438;12.128;2023-05-10T04:09:26;1.20;;;1.10;;
23449;SDS011;11897;45.438;12.128;2023-05-10T04:11:53;1.80;;;1.20;;
23449;SDS011;11897;45.438;12.128;2023-05-10T04:14:19;6.57;;;1.83;;
23449;SDS011;11897;45.438;12.128;2023-05-10T04:16:46;2.67;;;1.40;;
23449;SDS011;11897;45.438;12.128;2023-05-10T04:19:12;1.23;;;1.07;;
23449;SDS011;11897;45.438;12.128;2023-05-10T04:21:39;2.00;;;1.47;;
23449;SDS011;11897;45.438;12.128;2023-05-10T04:24:07;6.40;;;1.90;;
23449;SDS011;11897;45.438;12.128;2023-05-10T04:26:34;1.93;;;1.03;;
23449;SDS011;11897;45.438;12.128;2023-05-10T04:29:01;3.20;;;1.57;;
23449;SDS011;11897;45.438;12.128;2023-05-10T04:31:27;1.40;;;1.30;;
23449;SDS011;11897;45.438;12.128;2023-05-10T04:33:54;1.60;;;1.13;;
23449;SDS011;11897;45.438;12.128;2023-05-10T04:36:21;7.80;;;1.37;;
23449;SDS011;11897;45.438;12.128;2023-05-10T04:38:48;2.30;;;1.70;;
23449;SDS011;11897;45.438;12.128;2023-05-10T04:41:16;2.97;;;1.50;;
23449;SDS011;11897;45.438;12.128;2023-05-10T04:43:42;3.43;;;2.10;;
23449;SDS011;11897;45.438;12.128;2023-05-10T04:46:09;2.40;;;1.27;;
23449;SDS011;11897;45.438;12.128;2023-05-10T04:48:36;2.97;;;1.67;;
23449;SDS011;11897;45.438;12.128;2023-05-10T04:51:03;3.20;;;1.50;;
23449;SDS011;11897;45.438;12.128;2023-05-10T04:53:31;1.63;;;1.33;;
23449;SDS011;11897;45.438;12.128;2023-05-10T04:55:58;2.77;;;1.30;;
23449;SDS011;11897;45.438;12.128;2023-05-10T04:58:26;1.53;;;1.07;;
23449;SDS011;11897;45.438;12.128;2023-05-10T05:00:53;4.87;;;1.50;;
23449;SDS011;11897;45.438;12.128;2023-05-10T05:03:21;3.90;;;1.07;;
23449;SDS011;11897;45.438;12.128;2023-05-10T05:05:52;1.97;;;1.30;;
23449;SDS011;11897;45.438;12.128;2023-05-10T05:08:27;2.73;;;1.13;;
23449;SDS011;11897;45.438;12.128;2023-05-10T05:10:53;2.90;;;1.60;;
23449;SDS011;11897;45.438;12.128;2023-05-10T05:13:21;2.37;;;1.50;;
23449;SDS011;11897;45.438;12.128;2023-05-10T05:15:49;2.43;;;1.43;;
23449;SDS011;11897;45.438;12.128;2023-05-10T05:18:15;1.67;;;1.50;;
23449;SDS011;11897;45.438;12.128;2023-05-10T05:20:42;1.73;;;1.10;;
23449;SDS011;11897;45.438;12.128;2023-05-10T05:23:09;1.50;;;1.23;;
23449;SDS011;11897;45.438;12.128;2023-05-10T05:25:35;2.30;;;1.30;;
23449;SDS011;11897;45.438;12.128;2023-05-10T05:28:02;2.37;;;1.60;;
23449;SDS011;11897;45.438;12.128;2023-05-10T05:30:29;2.67;;;1.67;;
23449;SDS011;11897;45.438;12.128;2023-05-10T05:32:57;2.43;;;1.27;;
23449;SDS011;11897;45.438;12.128;2023-05-10T05:35:24;3.37;;;1.50;;
23449;SDS011;11897;45.438;12.128;2023-05-10T05:37:51;2.37;;;1.70;;
23449;SDS011;11897;45.438;12.128;2023-05-10T05:40:17;1.43;;;1.27;;
23449;SDS011;11897;45.438;12.128;2023-05-10T05:42:45;2.73;;;1.60;;
23449;SDS011;11897;45.438;12.128;2023-05-10T05:45:12;2.63;;;1.80;;
23449;SDS011;11897;45.438;12.128;2023-05-10T05:47:39;2.77;;;1.47;;
23449;SDS011;11897;45.438;12.128;2023-05-10T05:50:08;3.83;;;1.60;;
23449;SDS011;11897;45.438;12.128;2023-05-10T05:52:34;2.37;;;1.67;;
23449;SDS011;11897;45.438;12.128;2023-05-10T05:55:01;2.00;;;1.57;;
23449;SDS011;11897;45.438;12.128;2023-05-10T05:57:30;2.60;;;1.80;;
23449;SDS011;11897;45.438;12.128;2023-05-10T05:59:59;2.00;;;1.37;;
23449;SDS011;11897;45.438;12.128;2023-05-10T06:02:38;2.00;;;1.60;;
23449;SDS011;11897;45.438;12.128;2023-05-10T06:05:05;1.80;;;1.53;;
23449;SDS011;11897;45.438;12.128;2023-05-10T06:07:33;4.90;;;1.80;;
23449;SDS011;11897;45.438;12.128;2023-05-10T06:10:00;5.23;;;1.70;;
23449;SDS011;11897;45.438;12.128;2023-05-10T06:12:28;4.77;;;1.57;;
23449;SDS011;11897;45.438;12.128;2023-05-10T06:14:54;1.73;;;1.30;;
23449;SDS011;11897;45.438;12.128;2023-05-10T06:17:21;2.70;;;1.90;;
23449;SDS011;11897;45.438;12.128;2023-05-10T06:19:48;5.93;;;1.60;;
23449;SDS011;11897;45.438;12.128;2023-05-10T06:22:14;2.87;;;1.77;;
23449;SDS011;11897;45.438;12.128;2023-05-10T06:24:42;3.60;;;1.80;;
23449;SDS011;11897;45.438;12.128;2023-05-10T06:27:09;1.70;;;1.23;;
23449;SDS011;11897;45.438;12.128;2023-05-10T06:29:36;7.67;;;1.57;;
23449;SDS011;11897;45.438;12.128;2023-05-10T06:32:03;2.17;;;1.60;;
23449;SDS011;11897;45.438;12.128;2023-05-10T06:34:29;3.30;;;2.13;;
23449;SDS011;11897;45.438;12.128;2023-05-10T06:36:56;2.63;;;1.67;;
23449;SDS011;11897;45.438;12.128;2023-05-10T06:39:23;2.27;;;1.43;;
23449;SDS011;11897;45.438;12.128;2023-05-10T06:41:51;2.37;;;1.73;;
23449;SDS011;11897;45.438;12.128;2023-05-10T06:44:19;3.07;;;1.77;;
23449;SDS011;11897;45.438;12.128;2023-05-10T06:46:46;2.33;;;1.23;;
23449;SDS011;11897;45.438;12.128;2023-05-10T06:49:13;3.00;;;1.40;;
23449;SDS011;11897;45.438;12.128;2023-05-10T06:51:39;3.40;;;1.90;;
23449;SDS011;11897;45.438;12.128;2023-05-10T06:54:06;2.13;;;1.40;;
23449;SDS011;11897;45.438;12.128;2023-05-10T06:56:33;2.83;;;1.60;;
23449;SDS011;11897;45.438;12.128;2023-05-10T06:59:01;5.83;;;1.87;;
23449;SDS011;11897;45.438;12.128;2023-05-10T07:01:28;2.23;;;1.53;;
23449;SDS011;11897;45.438;12.128;2023-05-10T07:03:54;3.73;;;1.87;;
23449;SDS011;11897;45.438;12.128;2023-05-10T07:06:22;3.23;;;1.50;;
23449;SDS011;11897;45.438;12.128;2023-05-10T07:08:48;2.67;;;1.50;;
23449;SDS011;11897;45.438;12.128;2023-05-10T07:11:15;2.07;;;1.40;;
23449;SDS011;11897;45.438;12.128;2023-05-10T07:13:42;2.30;;;1.20;;
23449;SDS011;11897;45.438;12.128;2023-05-10T07:16:11;3.67;;;2.20;;
23449;SDS011;11897;45.438;12.128;2023-05-10T07:18:38;2.70;;;1.60;;
23449;SDS011;11897;45.438;12.128;2023-05-10T07:21:05;2.87;;;1.83;;
23449;SDS011;11897;45.438;12.128;2023-05-10T07:23:31;2.63;;;1.80;;
23449;SDS011;11897;45.438;12.128;2023-05-10T07:25:58;1.90;;;1.57;;
23449;SDS011;11897;45.438;12.128;2023-05-10T07:28:25;2.13;;;1.60;;
23449;SDS011;11897;45.438;12.128;2023-05-10T07:30:51;4.13;;;2.20;;
23449;SDS011;11897;45.438;12.128;2023-05-10T07:33:20;2.10;;;1.80;;
23449;SDS011;11897;45.438;12.128;2023-05-10T07:35:47;2.97;;;2.03;;
23449;SDS011;11897;45.438;12.128;2023-05-10T07:38:13;3.43;;;1.90;;
23449;SDS011;11897;45.438;12.128;2023-05-10T07:40:41;3.07;;;1.67;;
23449;SDS011;11897;45.438;12.128;2023-05-10T07:43:10;2.37;;;1.70;;
23449;SDS011;11897;45.438;12.128;2023-05-10T07:45:39;2.97;;;1.63;;
23449;SDS011;11897;45.438;12.128;2023-05-10T07:48:07;2.47;;;1.87;;
23449;SDS011;11897;45.438;12.128;2023-05-10T07:50:35;3.43;;;2.03;;
23449;SDS011;11897;45.438;12.128;2023-05-10T07:53:02;2.10;;;1.53;;
23449;SDS011;11897;45.438;12.128;2023-05-10T07:55:29;5.77;;;2.00;;
23449;SDS011;11897;45.438;12.128;2023-05-10T07:57:55;3.27;;;2.23;;
23449;SDS011;11897;45.438;12.128;2023-05-10T08:00:23;5.77;;;2.00;;
23449;SDS011;11897;45.438;12.128;2023-05-10T08:02:50;3.13;;;2.10;;
23449;SDS011;11897;45.438;12.128;2023-05-10T08:05:20;2.97;;;1.70;;
23449;SDS011;11897;45.438;12.128;2023-05-10T08:07:51;3.97;;;1.70;;
23449;SDS011;11897;45.438;12.128;2023-05-10T08:10:20;4.63;;;1.73;;
23449;SDS011;11897;45.438;12.128;2023-05-10T08:12:48;3.57;;;2.03;;
23449;SDS011;11897;45.438;12.128;2023-05-10T08:15:15;3.07;;;1.77;;
23449;SDS011;11897;45.438;12.128;2023-05-10T08:17:42;2.67;;;1.97;;
23449;SDS011;11897;45.438;12.128;2023-05-10T08:20:09;2.40;;;1.87;;
23449;SDS011;11897;45.438;12.128;2023-05-10T08:22:38;4.03;;;2.20;;
23449;SDS011;11897;45.438;12.128;2023-05-10T08:25:07;2.67;;;1.70;;
23449;SDS011;11897;45.438;12.128;2023-05-10T08:27:34;4.50;;;1.80;;
23449;SDS011;11897;45.438;12.128;2023-05-10T08:30:01;3.53;;;2.00;;
23449;SDS011;11897;45.438;12.128;2023-05-10T08:32:27;2.43;;;1.87;;
23449;SDS011;11897;45.438;12.128;2023-05-10T08:34:54;2.63;;;2.10;;
23449;SDS011;11897;45.438;12.128;2023-05-10T08:37:25;1.70;;;1.50;;
23449;SDS011;11897;45.438;12.128;2023-05-10T08:39:53;2.27;;;1.83;;
23449;SDS011;11897;45.438;12.128;2023-05-10T08:42:21;6.23;;;2.20;;
23449;SDS011;11897;45.438;12.128;2023-05-10T08:44:48;7.13;;;2.10;;
23449;SDS011;11897;45.438;12.128;2023-05-10T08:47:18;2.90;;;1.77;;
23449;SDS011;11897;45.438;12.128;2023-05-10T08:49:45;2.50;;;1.90;;
23449;SDS011;11897;45.438;12.128;2023-05-10T08:52:13;4.30;;;1.63;;
23449;SDS011;11897;45.438;12.128;2023-05-10T08:54:41;5.23;;;2.27;;
23449;SDS011;11897;45.438;12.128;2023-05-10T08:57:09;3.60;;;2.27;;
23449;SDS011;11897;45.438;12.128;2023-05-10T08:59:37;2.73;;;2.10;;
23449;SDS011;11897;45.438;12.128;2023-05-10T09:02:05;4.13;;;2.43;;
23449;SDS011;11897;45.438;12.128;2023-05-10T09:04:32;4.20;;;2.07;;
23449;SDS011;11897;45.438;12.128;2023-05-10T09:06:59;6.13;;;2.20;;
23449;SDS011;11897;45.438;12.128;2023-05-10T09:09:26;5.07;;;2.50;;
23449;SDS011;11897;45.438;12.128;2023-05-10T09:11:53;4.13;;;2.27;;
23449;SDS011;11897;45.438;12.128;2023-05-10T09:14:20;4.53;;;2.53;;
23449;SDS011;11897;45.438;12.128;2023-05-10T09:16:50;2.80;;;2.17;;
23449;SDS011;11897;45.438;12.128;2023-05-10T09:19:17;4.90;;;2.07;;
23449;SDS011;11897;45.438;12.128;2023-05-10T09:21:43;3.50;;;2.47;;
23449;SDS011;11897;45.438;12.128;2023-05-10T09:24:12;3.77;;;2.40;;
23449;SDS011;11897;45.438;12.128;2023-05-10T09:26:45;3.07;;;2.03;;
23449;SDS011;11897;45.438;12.128;2023-05-10T09:29:12;8.70;;;2.10;;
23449;SDS011;11897;45.438;12.128;2023-05-10T09:31:43;3.63;;;2.30;;
23449;SDS011;11897;45.438;12.128;2023-05-10T09:34:13;4.13;;;2.17;;
23449;SDS011;11897;45.438;12.128;2023-05-10T09:36:51;3.30;;;2.57;;
23449;SDS011;11897;45.438;12.128;2023-05-10T09:39:19;4.67;;;2.30;;
23449;SDS011;11897;45.438;12.128;2023-05-10T09:41:46;4.07;;;2.93;;
23449;SDS011;11897;45.438;12.128;2023-05-10T09:44:16;3.53;;;2.63;;
23449;SDS011;11897;45.438;12.128;2023-05-10T09:46:49;3.73;;;2.17;;
23449;SDS011;11897;45.438;12.128;2023-05-10T09:49:18;4.67;;;2.50;;
23449;SDS011;11897;45.438;12.128;2023-05-10T09:51:45;3.23;;;2.33;;
23449;SDS011;11897;45.438;12.128;2023-05-10T09:54:12;7.53;;;2.23;;
23449;SDS011;11897;45.438;12.128;2023-05-10T09:56:40;4.70;;;2.67;;
23449;SDS011;11897;45.438;12.128;2023-05-10T09:59:07;9.33;;;2.60;;
23449;SDS011;11897;45.438;12.128;2023-05-10T10:01:36;4.17;;;2.77;;
23449;SDS011;11897;45.438;12.128;2023-05-10T10:04:04;4.10;;;2.53;;
23449;SDS011;11897;45.438;12.128;2023-05-10T10:06:45;3.73;;;2.73;;
23449;SDS011;11897;45.438;12.128;2023-05-10T10:09:12;2.67;;;2.40;;
23449;SDS011;11897;45.438;12.128;2023-05-10T10:11:40;3.50;;;2.40;;
23449;SDS011;11897;45.438;12.128;2023-05-10T10:14:07;3.87;;;2.90;;
23449;SDS011;11897;45.438;12.128;2023-05-10T10:16:34;3.67;;;2.70;;
23449;SDS011;11897;45.438;12.128;2023-05-10T10:19:01;4.70;;;2.53;;
23449;SDS011;11897;45.438;12.128;2023-05-10T10:21:29;3.77;;;2.57;;
23449;SDS011;11897;45.438;12.128;2023-05-10T10:23:58;3.63;;;2.27;;
23449;SDS011;11897;45.438;12.128;2023-05-10T10:26:25;5.40;;;3.30;;
23449;SDS011;11897;45.438;12.128;2023-05-10T10:28:56;4.13;;;2.53;;
23449;SDS011;11897;45.438;12.128;2023-05-10T10:31:27;5.87;;;2.73;;
23449;SDS011;11897;45.438;12.128;2023-05-10T10:33:59;3.67;;;2.50;;
23449;SDS011;11897;45.438;12.128;2023-05-10T10:36:27;3.23;;;2.13;;
23449;SDS011;11897;45.438;12.128;2023-05-10T10:39:01;3.83;;;2.47;;
23449;SDS011;11897;45.438;12.128;2023-05-10T10:41:32;7.90;;;3.10;;
23449;SDS011;11897;45.438;12.128;2023-05-10T10:47:01;4.20;;;2.47;;
23449;SDS011;11897;45.438;12.128;2023-05-10T10:49:31;2.93;;;2.10;;
23449;SDS011;11897;45.438;12.128;2023-05-10T10:54:50;4.97;;;2.70;;
23449;SDS011;11897;45.438;12.128;2023-05-10T10:57:18;4.30;;;2.57;;
23449;SDS011;11897;45.438;12.128;2023-05-10T10:59:46;5.30;;;2.90;;
23449;SDS011;11897;45.438;12.128;2023-05-10T11:02:32;4.13;;;2.67;;
23449;SDS011;11897;45.438;12.128;2023-05-10T11:04:59;3.47;;;2.37;;
23449;SDS011;11897;45.438;12.128;2023-05-10T11:07:26;3.30;;;2.30;;
23449;SDS011;11897;45.438;12.128;2023-05-10T11:09:54;4.77;;;2.87;;
23449;SDS011;11897;45.438;12.128;2023-05-10T11:12:21;4.50;;;2.53;;
23449;SDS011;11897;45.438;12.128;2023-05-10T11:14:49;3.53;;;2.47;;
23449;SDS011;11897;45.438;12.128;2023-05-10T11:17:22;4.10;;;2.70;;
23449;SDS011;11897;45.438;12.128;2023-05-10T11:20:06;3.27;;;2.73;;
23449;SDS011;11897;45.438;12.128;2023-05-10T11:22:48;3.40;;;2.40;;
23449;SDS011;11897;45.438;12.128;2023-05-10T11:25:19;6.17;;;3.33;;
23449;SDS011;11897;45.438;12.128;2023-05-10T11:27:46;5.67;;;2.77;;
23449;SDS011;11897;45.438;12.128;2023-05-10T11:30:14;5.03;;;2.80;;
23449;SDS011;11897;45.438;12.128;2023-05-10T11:32:41;4.53;;;2.60;;
23449;SDS011;11897;45.438;12.128;2023-05-10T11:35:08;6.20;;;3.13;;
23449;SDS011;11897;45.438;12.128;2023-05-10T11:37:34;4.13;;;2.70;;
23449;SDS011;11897;45.438;12.128;2023-05-10T11:40:01;8.43;;;3.00;;
23449;SDS011;11897;45.438;12.128;2023-05-10T11:42:30;3.73;;;3.07;;
23449;SDS011;11897;45.438;12.128;2023-05-10T11:44:56;5.60;;;3.27;;
23449;SDS011;11897;45.438;12.128;2023-05-10T11:47:23;4.57;;;2.67;;
23449;SDS011;11897;45.438;12.128;2023-05-10T11:49:50;3.57;;;2.73;;
23449;SDS011;11897;45.438;12.128;2023-05-10T11:52:20;6.03;;;2.90;;
23449;SDS011;11897;45.438;12.128;2023-05-10T11:54:50;4.67;;;2.30;;
23449;SDS011;11897;45.438;12.128;2023-05-10T11:57:18;3.80;;;2.03;;
23449;SDS011;11897;45.438;12.128;2023-05-10T11:59:47;4.07;;;2.50;;
23449;SDS011;11897;45.438;12.128;2023-05-10T12:02:13;3.63;;;2.57;;
23449;SDS011;11897;45.438;12.128;2023-05-10T12:04:40;4.43;;;2.90;;
23449;SDS011;11897;45.438;12.128;2023-05-10T12:07:07;3.33;;;2.20;;
23449;SDS011;11897;45.438;12.128;2023-05-10T12:09:36;6.70;;;2.53;;
23449;SDS011;11897;45.438;12.128;2023-05-10T12:12:03;4.67;;;2.97;;
23449;SDS011;11897;45.438;12.128;2023-05-10T12:14:33;3.87;;;2.73;;
23449;SDS011;11897;45.438;12.128;2023-05-10T12:17:01;4.53;;;2.90;;
23449;SDS011;11897;45.438;12.128;2023-05-10T12:19:29;5.87;;;2.50;;
23449;SDS011;11897;45.438;12.128;2023-05-10T12:22:04;3.80;;;2.43;;
23449;SDS011;11897;45.438;12.128;2023-05-10T12:24:33;5.57;;;3.33;;
23449;SDS011;11897;45.438;12.128;2023-05-10T12:27:03;6.43;;;3.30;;
23449;SDS011;11897;45.438;12.128;2023-05-10T12:29:31;3.93;;;2.23;;
23449;SDS011;11897;45.438;12.128;2023-05-10T12:31:58;4.73;;;3.10;;
23449;SDS011;11897;45.438;12.128;2023-05-10T12:34:29;6.77;;;2.93;;
23449;SDS011;11897;45.438;12.128;2023-05-10T12:36:56;4.73;;;2.60;;
23449;SDS011;11897;45.438;12.128;2023-05-10T12:39:23;4.00;;;2.50;;
23449;SDS011;11897;45.438;12.128;2023-05-10T12:41:50;5.27;;;2.67;;
23449;SDS011;11897;45.438;12.128;2023-05-10T12:44:17;3.90;;;2.73;;
23449;SDS011;11897;45.438;12.128;2023-05-10T12:46:44;4.43;;;3.20;;
23449;SDS011;11897;45.438;12.128;2023-05-10T12:49:10;4.60;;;3.47;;
23449;SDS011;11897;45.438;12.128;2023-05-10T12:51:39;5.30;;;3.50;;
23449;SDS011;11897;45.438;12.128;2023-05-10T12:54:08;5.63;;;2.53;;
23449;SDS011;11897;45.438;12.128;2023-05-10T12:56:35;4.13;;;2.73;;
23449;SDS011;11897;45.438;12.128;2023-05-10T12:59:02;6.57;;;3.40;;
23449;SDS011;11897;45.438;12.128;2023-05-10T13:01:28;4.93;;;3.20;;
23449;SDS011;11897;45.438;12.128;2023-05-10T13:03:55;4.83;;;2.67;;
23449;SDS011;11897;45.438;12.128;2023-05-10T13:06:22;5.80;;;3.60;;
23449;SDS011;11897;45.438;12.128;2023-05-10T13:08:50;4.83;;;3.07;;
23449;SDS011;11897;45.438;12.128;2023-05-10T13:11:20;3.97;;;2.73;;
23449;SDS011;11897;45.438;12.128;2023-05-10T13:13:48;9.60;;;3.43;;
23449;SDS011;11897;45.438;12.128;2023-05-10T13:16:15;5.07;;;2.70;;
23449;SDS011;11897;45.438;12.128;2023-05-10T13:18:42;5.07;;;3.13;;
23449;SDS011;11897;45.438;12.128;2023-05-10T13:21:08;5.07;;;2.93;;
23449;SDS011;11897;45.438;12.128;2023-05-10T13:23:36;5.30;;;2.90;;
23449;SDS011;11897;45.438;12.128;2023-05-10T13:26:05;6.03;;;2.80;;
23449;SDS011;11897;45.438;12.128;2023-05-10T13:28:31;4.63;;;3.07;;
23449;SDS011;11897;45.438;12.128;2023-05-10T13:30:58;4.17;;;2.83;;
23449;SDS011;11897;45.438;12.128;2023-05-10T13:33:25;5.67;;;2.67;;
23449;SDS011;11897;45.438;12.128;2023-05-10T13:35:51;7.77;;;3.70;;
23449;SDS011;11897;45.438;12.128;2023-05-10T13:38:18;5.47;;;3.33;;
23449;SDS011;11897;45.438;12.128;2023-05-10T13:40:46;4.73;;;2.83;;
23449;SDS011;11897;45.438;12.128;2023-05-10T13:43:14;4.60;;;2.80;;
23449;SDS011;11897;45.438;12.128;2023-05-10T13:45:41;8.93;;;3.10;;
23449;SDS011;11897;45.438;12.128;2023-05-10T13:48:07;6.17;;;3.03;;
23449;SDS011;11897;45.438;12.128;2023-05-10T13:50:34;3.90;;;2.33;;
23449;SDS011;11897;45.438;12.128;2023-05-10T13:53:01;6.43;;;3.47;;
23449;SDS011;11897;45.438;12.128;2023-05-10T13:55:27;4.73;;;3.47;;
23449;SDS011;11897;45.438;12.128;2023-05-10T13:57:55;7.40;;;3.67;;
23449;SDS011;11897;45.438;12.128;2023-05-10T14:00:25;5.50;;;3.30;;
23449;SDS011;11897;45.438;12.128;2023-05-10T14:02:52;5.27;;;3.13;;
23449;SDS011;11897;45.438;12.128;2023-05-10T14:05:18;5.23;;;3.37;;
23449;SDS011;11897;45.438;12.128;2023-05-10T14:07:45;6.20;;;3.33;;
23449;SDS011;11897;45.438;12.128;2023-05-10T14:10:12;7.77;;;3.67;;
23449;SDS011;11897;45.438;12.128;2023-05-10T14:12:39;6.77;;;3.57;;
23449;SDS011;11897;45.438;12.128;2023-05-10T14:15:06;6.83;;;4.30;;
23449;SDS011;11897;45.438;12.128;2023-05-10T14:17:34;6.73;;;3.40;;
23449;SDS011;11897;45.438;12.128;2023-05-10T14:20:01;6.60;;;3.20;;
23449;SDS011;11897;45.438;12.128;2023-05-10T14:22:29;5.57;;;3.23;;
23449;SDS011;11897;45.438;12.128;2023-05-10T14:24:55;3.40;;;3.00;;
23449;SDS011;11897;45.438;12.128;2023-05-10T14:27:23;5.43;;;2.97;;
23449;SDS011;11897;45.438;12.128;2023-05-10T14:29:49;5.73;;;3.07;;
23449;SDS011;11897;45.438;12.128;2023-05-10T14:32:16;5.47;;;3.70;;
23449;SDS011;11897;45.438;12.128;2023-05-10T14:34:44;7.90;;;2.50;;
23449;SDS011;11897;45.438;12.128;2023-05-10T14:37:13;3.93;;;3.10;;
23449;SDS011;11897;45.438;12.128;2023-05-10T14:39:40;5.93;;;3.10;;
23449;SDS011;11897;45.438;12.128;2023-05-10T14:42:07;5.33;;;3.03;;
23449;SDS011;11897;45.438;12.128;2023-05-10T14:44:34;5.20;;;3.50;;
23449;SDS011;11897;45.438;12.128;2023-05-10T14:47:00;5.93;;;3.33;;